sensor_id;sensor_type;location;lat;lon;timestamp;temperature;humidity
39021;DHT22;25188;51.958;5.842;2022-10-16T00:00:41;13.40;99.90
39021;DHT22;25188;51.958;5.842;2022-10-16T00:03:08;13.40;99.90
39021;DHT22;25188;51.958;5.842;2022-10-16T00:05:39;13.40;99.90
39021;DHT22;25188;51.958;5.842;2022-10-16T00:08:05;13.40;99.90
39021;DHT22;25188;51.958;5.842;2022-10-16T00:10:30;13.40;99.90
39021;DHT22;25188;51.958;5.842;2022-10-16T00:12:56;13.30;99.90
39021;DHT22;25188;51.958;5.842;2022-10-16T00:15:22;13.40;99.90
39021;DHT22;25188;51.958;5.842;2022-10-16T00:17:48;13.30;99.90
39021;DHT22;25188;51.958;5.842;2022-10-16T00:20:13;13.30;99.90
39021;DHT22;25188;51.958;5.842;2022-10-16T00:22:39;13.30;99.90
39021;DHT22;25188;51.958;5.842;2022-10-16T00:25:05;13.30;99.90
39021;DHT22;25188;51.958;5.842;2022-10-16T00:27:31;13.30;99.90
39021;DHT22;25188;51.958;5.842;2022-10-16T00:29:57;13.20;99.90
39021;DHT22;25188;51.958;5.842;2022-10-16T00:32:22;13.20;99.90
39021;DHT22;25188;51.958;5.842;2022-10-16T00:34:48;13.20;99.90
39021;DHT22;25188;51.958;5.842;2022-10-16T00:37:13;13.20;99.90
39021;DHT22;25188;51.958;5.842;2022-10-16T00:39:39;13.20;99.90
39021;DHT22;25188;51.958;5.842;2022-10-16T00:42:05;13.20;99.90
39021;DHT22;25188;51.958;5.842;2022-10-16T00:50:07;13.10;99.90
39021;DHT22;25188;51.958;5.842;2022-10-16T00:52:33;13.10;99.90
39021;DHT22;25188;51.958;5.842;2022-10-16T00:55:00;13.10;99.90
39021;DHT22;25188;51.958;5.842;2022-10-16T00:57:27;13.10;99.90
39021;DHT22;25188;51.958;5.842;2022-10-16T00:59:53;13.10;99.90
39021;DHT22;25188;51.958;5.842;2022-10-16T01:02:19;13.10;99.90
39021;DHT22;25188;51.958;5.842;2022-10-16T01:04:48;13.10;99.90
39021;DHT22;25188;51.958;5.842;2022-10-16T01:20:57;13.00;99.90
39021;DHT22;25188;51.958;5.842;2022-10-16T01:29:06;13.00;99.90
39021;DHT22;25188;51.958;5.842;2022-10-16T01:31:36;13.00;99.90
39021;DHT22;25188;51.958;5.842;2022-10-16T01:34:10;13.00;99.90
39021;DHT22;25188;51.958;5.842;2022-10-16T01:36:48;13.10;99.90
39021;DHT22;25188;51.958;5.842;2022-10-16T01:39:18;13.10;99.90
39021;DHT22;25188;51.958;5.842;2022-10-16T01:41:51;13.10;99.90
39021;DHT22;25188;51.958;5.842;2022-10-16T01:44:21;13.00;99.90
39021;DHT22;25188;51.958;5.842;2022-10-16T01:46:50;13.10;99.90
39021;DHT22;25188;51.958;5.842;2022-10-16T01:49:18;13.10;99.90
39021;DHT22;25188;51.958;5.842;2022-10-16T01:51:48;13.10;99.90
39021;DHT22;25188;51.958;5.842;2022-10-16T01:54:16;13.00;99.90
39021;DHT22;25188;51.958;5.842;2022-10-16T01:56:43;13.10;99.90
39021;DHT22;25188;51.958;5.842;2022-10-16T01:59:13;13.20;99.90
39021;DHT22;25188;51.958;5.842;2022-10-16T02:01:42;13.10;99.90
39021;DHT22;25188;51.958;5.842;2022-10-16T02:04:16;13.20;99.90
39021;DHT22;25188;51.958;5.842;2022-10-16T02:06:43;13.20;99.90
39021;DHT22;25188;51.958;5.842;2022-10-16T02:09:09;13.20;99.90
39021;DHT22;25188;51.958;5.842;2022-10-16T02:11:35;13.20;99.90
39021;DHT22;25188;51.958;5.842;2022-10-16T02:14:06;13.20;99.90
39021;DHT22;25188;51.958;5.842;2022-10-16T02:16:43;13.30;99.90
39021;DHT22;25188;51.958;5.842;2022-10-16T02:19:11;13.30;99.90
39021;DHT22;25188;51.958;5.842;2022-10-16T02:24:27;13.30;99.90
39021;DHT22;25188;51.958;5.842;2022-10-16T02:29:25;13.30;99.90
39021;DHT22;25188;51.958;5.842;2022-10-16T02:31:55;13.30;99.90
39021;DHT22;25188;51.958;5.842;2022-10-16T02:34:24;13.30;99.90
39021;DHT22;25188;51.958;5.842;2022-10-16T02:36:51;13.30;99.90
39021;DHT22;25188;51.958;5.842;2022-10-16T02:39:18;13.30;99.90
39021;DHT22;25188;51.958;5.842;2022-10-16T02:41:45;13.30;99.90
39021;DHT22;25188;51.958;5.842;2022-10-16T02:44:11;13.20;99.90
39021;DHT22;25188;51.958;5.842;2022-10-16T02:46:36;13.30;99.90
39021;DHT22;25188;51.958;5.842;2022-10-16T02:49:02;13.30;99.90
39021;DHT22;25188;51.958;5.842;2022-10-16T02:51:28;13.20;99.90
39021;DHT22;25188;51.958;5.842;2022-10-16T02:53:53;13.20;99.90
39021;DHT22;25188;51.958;5.842;2022-10-16T02:56:19;13.20;99.90
39021;DHT22;25188;51.958;5.842;2022-10-16T02:58:44;13.20;99.90
39021;DHT22;25188;51.958;5.842;2022-10-16T03:01:10;13.20;99.90
39021;DHT22;25188;51.958;5.842;2022-10-16T03:03:38;13.20;99.90
39021;DHT22;25188;51.958;5.842;2022-10-16T03:06:04;13.20;99.90
39021;DHT22;25188;51.958;5.842;2022-10-16T03:08:30;13.20;99.90
39021;DHT22;25188;51.958;5.842;2022-10-16T03:10:56;13.20;99.90
39021;DHT22;25188;51.958;5.842;2022-10-16T03:13:22;13.20;99.90
39021;DHT22;25188;51.958;5.842;2022-10-16T03:15:48;13.20;99.90
39021;DHT22;25188;51.958;5.842;2022-10-16T03:18:13;13.20;99.90
39021;DHT22;25188;51.958;5.842;2022-10-16T03:20:39;13.20;99.90
39021;DHT22;25188;51.958;5.842;2022-10-16T03:23:05;13.20;99.90
39021;DHT22;25188;51.958;5.842;2022-10-16T03:25:32;13.10;99.90
39021;DHT22;25188;51.958;5.842;2022-10-16T03:27:57;13.10;99.90
39021;DHT22;25188;51.958;5.842;2022-10-16T03:30:23;13.10;99.90
39021;DHT22;25188;51.958;5.842;2022-10-16T03:32:48;13.20;99.90
39021;DHT22;25188;51.958;5.842;2022-10-16T03:35:22;13.10;99.90
39021;DHT22;25188;51.958;5.842;2022-10-16T03:37:48;13.20;99.90
39021;DHT22;25188;51.958;5.842;2022-10-16T03:40:14;13.20;99.90
39021;DHT22;25188;51.958;5.842;2022-10-16T03:42:41;13.20;99.90
39021;DHT22;25188;51.958;5.842;2022-10-16T03:45:07;13.20;99.90
39021;DHT22;25188;51.958;5.842;2022-10-16T03:47:33;13.20;99.90
39021;DHT22;25188;51.958;5.842;2022-10-16T03:49:59;13.20;99.90
39021;DHT22;25188;51.958;5.842;2022-10-16T03:52:25;13.10;99.90
39021;DHT22;25188;51.958;5.842;2022-10-16T03:54:51;13.10;99.90
39021;DHT22;25188;51.958;5.842;2022-10-16T03:57:17;13.10;99.90
39021;DHT22;25188;51.958;5.842;2022-10-16T03:59:42;13.20;99.90
39021;DHT22;25188;51.958;5.842;2022-10-16T04:02:08;13.10;99.90
39021;DHT22;25188;51.958;5.842;2022-10-16T04:04:34;13.10;99.90
39021;DHT22;25188;51.958;5.842;2022-10-16T04:06:59;13.10;99.90
39021;DHT22;25188;51.958;5.842;2022-10-16T04:09:25;13.10;99.90
39021;DHT22;25188;51.958;5.842;2022-10-16T04:11:51;13.10;99.90
39021;DHT22;25188;51.958;5.842;2022-10-16T04:14:16;13.10;99.90
39021;DHT22;25188;51.958;5.842;2022-10-16T04:16:42;13.10;99.90
39021;DHT22;25188;51.958;5.842;2022-10-16T04:19:09;13.10;99.90
39021;DHT22;25188;51.958;5.842;2022-10-16T04:21:35;13.10;99.90
39021;DHT22;25188;51.958;5.842;2022-10-16T04:24:00;13.10;99.90
39021;DHT22;25188;51.958;5.842;2022-10-16T04:26:26;13.20;99.90
39021;DHT22;25188;51.958;5.842;2022-10-16T04:28:51;13.10;99.90
39021;DHT22;25188;51.958;5.842;2022-10-16T04:31:17;13.20;99.90
39021;DHT22;25188;51.958;5.842;2022-10-16T04:33:43;13.10;99.90
39021;DHT22;25188;51.958;5.842;2022-10-16T04:36:09;13.10;99.90
39021;DHT22;25188;51.958;5.842;2022-10-16T04:38:35;13.20;99.90
39021;DHT22;25188;51.958;5.842;2022-10-16T04:41:03;13.20;99.90
39021;DHT22;25188;51.958;5.842;2022-10-16T04:43:29;13.10;99.90
39021;DHT22;25188;51.958;5.842;2022-10-16T04:45:54;13.20;99.90
39021;DHT22;25188;51.958;5.842;2022-10-16T04:48:21;13.10;99.90
39021;DHT22;25188;51.958;5.842;2022-10-16T04:50:47;13.10;99.90
39021;DHT22;25188;51.958;5.842;2022-10-16T04:53:13;13.10;99.90
39021;DHT22;25188;51.958;5.842;2022-10-16T04:55:39;13.10;99.90
39021;DHT22;25188;51.958;5.842;2022-10-16T04:58:05;13.00;99.90
39021;DHT22;25188;51.958;5.842;2022-10-16T05:00:31;13.10;99.90
39021;DHT22;25188;51.958;5.842;2022-10-16T05:02:56;13.10;99.90
39021;DHT22;25188;51.958;5.842;2022-10-16T05:05:23;13.10;99.90
39021;DHT22;25188;51.958;5.842;2022-10-16T05:07:49;13.10;99.90
39021;DHT22;25188;51.958;5.842;2022-10-16T05:10:17;13.10;99.90
39021;DHT22;25188;51.958;5.842;2022-10-16T05:12:43;13.00;99.90
39021;DHT22;25188;51.958;5.842;2022-10-16T05:15:09;13.00;99.90
39021;DHT22;25188;51.958;5.842;2022-10-16T05:17:35;13.00;99.90
39021;DHT22;25188;51.958;5.842;2022-10-16T05:20:00;12.90;99.90
39021;DHT22;25188;51.958;5.842;2022-10-16T05:22:26;12.90;99.90
39021;DHT22;25188;51.958;5.842;2022-10-16T05:24:51;12.90;99.90
39021;DHT22;25188;51.958;5.842;2022-10-16T05:27:17;12.80;99.90
39021;DHT22;25188;51.958;5.842;2022-10-16T05:29:47;12.80;99.90
39021;DHT22;25188;51.958;5.842;2022-10-16T05:32:14;12.80;99.90
39021;DHT22;25188;51.958;5.842;2022-10-16T05:34:40;12.80;99.90
39021;DHT22;25188;51.958;5.842;2022-10-16T05:37:06;12.80;99.90
39021;DHT22;25188;51.958;5.842;2022-10-16T05:39:31;12.70;99.90
39021;DHT22;25188;51.958;5.842;2022-10-16T05:41:57;12.70;99.90
39021;DHT22;25188;51.958;5.842;2022-10-16T05:44:22;12.70;99.90
39021;DHT22;25188;51.958;5.842;2022-10-16T05:46:48;12.70;99.90
39021;DHT22;25188;51.958;5.842;2022-10-16T05:49:14;12.60;99.90
39021;DHT22;25188;51.958;5.842;2022-10-16T05:51:40;12.60;99.90
39021;DHT22;25188;51.958;5.842;2022-10-16T05:54:06;12.60;99.90
39021;DHT22;25188;51.958;5.842;2022-10-16T05:56:32;12.50;99.90
39021;DHT22;25188;51.958;5.842;2022-10-16T05:58:57;12.50;99.90
39021;DHT22;25188;51.958;5.842;2022-10-16T06:01:23;12.50;99.90
39021;DHT22;25188;51.958;5.842;2022-10-16T06:03:50;12.50;99.90
39021;DHT22;25188;51.958;5.842;2022-10-16T06:06:19;12.50;99.90
39021;DHT22;25188;51.958;5.842;2022-10-16T06:08:46;12.50;99.90
39021;DHT22;25188;51.958;5.842;2022-10-16T06:11:17;12.50;99.90
39021;DHT22;25188;51.958;5.842;2022-10-16T06:13:43;12.40;99.90
39021;DHT22;25188;51.958;5.842;2022-10-16T06:16:12;12.40;99.90
39021;DHT22;25188;51.958;5.842;2022-10-16T06:18:38;12.40;99.90
39021;DHT22;25188;51.958;5.842;2022-10-16T06:21:13;12.50;99.90
39021;DHT22;25188;51.958;5.842;2022-10-16T06:23:39;12.50;99.90
39021;DHT22;25188;51.958;5.842;2022-10-16T06:26:06;12.50;99.90
39021;DHT22;25188;51.958;5.842;2022-10-16T06:28:32;12.50;99.90
39021;DHT22;25188;51.958;5.842;2022-10-16T06:31:02;12.50;99.90
39021;DHT22;25188;51.958;5.842;2022-10-16T06:33:28;12.60;99.90
39021;DHT22;25188;51.958;5.842;2022-10-16T06:35:59;12.60;99.90
39021;DHT22;25188;51.958;5.842;2022-10-16T06:38:25;12.70;99.90
39021;DHT22;25188;51.958;5.842;2022-10-16T06:40:50;12.60;99.90
39021;DHT22;25188;51.958;5.842;2022-10-16T06:43:16;12.70;99.90
39021;DHT22;25188;51.958;5.842;2022-10-16T06:45:41;12.80;99.90
39021;DHT22;25188;51.958;5.842;2022-10-16T06:48:07;12.80;99.90
39021;DHT22;25188;51.958;5.842;2022-10-16T06:50:32;12.80;99.90
39021;DHT22;25188;51.958;5.842;2022-10-16T06:52:58;13.00;99.90
39021;DHT22;25188;51.958;5.842;2022-10-16T06:55:24;12.90;99.90
39021;DHT22;25188;51.958;5.842;2022-10-16T06:57:49;13.00;99.90
39021;DHT22;25188;51.958;5.842;2022-10-16T07:00:15;13.00;99.90
39021;DHT22;25188;51.958;5.842;2022-10-16T07:02:41;13.10;99.90
39021;DHT22;25188;51.958;5.842;2022-10-16T07:05:07;13.10;99.90
39021;DHT22;25188;51.958;5.842;2022-10-16T07:07:32;13.20;99.90
39021;DHT22;25188;51.958;5.842;2022-10-16T07:09:58;13.20;99.90
39021;DHT22;25188;51.958;5.842;2022-10-16T07:12:23;13.30;99.90
39021;DHT22;25188;51.958;5.842;2022-10-16T07:14:49;13.30;99.90
39021;DHT22;25188;51.958;5.842;2022-10-16T07:17:17;13.40;99.90
39021;DHT22;25188;51.958;5.842;2022-10-16T07:19:43;13.40;99.90
39021;DHT22;25188;51.958;5.842;2022-10-16T07:22:08;13.40;99.90
39021;DHT22;25188;51.958;5.842;2022-10-16T07:24:34;13.50;99.90
39021;DHT22;25188;51.958;5.842;2022-10-16T07:27:00;13.50;99.90
39021;DHT22;25188;51.958;5.842;2022-10-16T07:29:26;13.60;99.90
39021;DHT22;25188;51.958;5.842;2022-10-16T07:31:51;13.50;99.90
39021;DHT22;25188;51.958;5.842;2022-10-16T07:34:18;13.60;99.90
39021;DHT22;25188;51.958;5.842;2022-10-16T07:36:47;13.60;99.90
39021;DHT22;25188;51.958;5.842;2022-10-16T07:39:13;13.70;99.90
39021;DHT22;25188;51.958;5.842;2022-10-16T07:41:39;13.70;99.90
39021;DHT22;25188;51.958;5.842;2022-10-16T07:44:04;13.80;99.90
39021;DHT22;25188;51.958;5.842;2022-10-16T07:46:31;13.80;99.90
39021;DHT22;25188;51.958;5.842;2022-10-16T07:48:59;13.80;99.90
39021;DHT22;25188;51.958;5.842;2022-10-16T07:51:25;13.90;99.90
39021;DHT22;25188;51.958;5.842;2022-10-16T07:53:52;14.00;99.90
39021;DHT22;25188;51.958;5.842;2022-10-16T07:56:18;14.10;99.90
39021;DHT22;25188;51.958;5.842;2022-10-16T07:58:44;14.20;99.90
39021;DHT22;25188;51.958;5.842;2022-10-16T08:01:12;14.30;99.90
39021;DHT22;25188;51.958;5.842;2022-10-16T08:03:44;14.30;99.90
39021;DHT22;25188;51.958;5.842;2022-10-16T08:06:10;14.40;99.90
39021;DHT22;25188;51.958;5.842;2022-10-16T08:08:36;14.60;99.90
39021;DHT22;25188;51.958;5.842;2022-10-16T08:11:02;14.70;99.90
39021;DHT22;25188;51.958;5.842;2022-10-16T08:13:30;14.80;99.90
39021;DHT22;25188;51.958;5.842;2022-10-16T08:15:56;14.90;99.90
39021;DHT22;25188;51.958;5.842;2022-10-16T08:18:22;15.00;99.90
39021;DHT22;25188;51.958;5.842;2022-10-16T08:20:47;15.00;99.90
39021;DHT22;25188;51.958;5.842;2022-10-16T08:23:13;15.00;99.90
39021;DHT22;25188;51.958;5.842;2022-10-16T08:25:40;15.20;99.90
39021;DHT22;25188;51.958;5.842;2022-10-16T08:28:07;15.20;99.90
39021;DHT22;25188;51.958;5.842;2022-10-16T08:30:33;15.20;99.90
39021;DHT22;25188;51.958;5.842;2022-10-16T08:32:59;15.30;99.90
39021;DHT22;25188;51.958;5.842;2022-10-16T08:35:25;15.30;99.90
39021;DHT22;25188;51.958;5.842;2022-10-16T08:37:51;15.40;99.90
39021;DHT22;25188;51.958;5.842;2022-10-16T08:40:28;15.40;99.90
39021;DHT22;25188;51.958;5.842;2022-10-16T08:48:45;15.40;99.90
39021;DHT22;25188;51.958;5.842;2022-10-16T08:51:18;15.40;99.90
39021;DHT22;25188;51.958;5.842;2022-10-16T08:53:49;15.40;99.90
39021;DHT22;25188;51.958;5.842;2022-10-16T08:56:15;15.40;99.90
39021;DHT22;25188;51.958;5.842;2022-10-16T08:58:42;15.50;99.90
39021;DHT22;25188;51.958;5.842;2022-10-16T09:01:14;15.50;99.90
39021;DHT22;25188;51.958;5.842;2022-10-16T09:04:13;15.40;99.90
39021;DHT22;25188;51.958;5.842;2022-10-16T09:06:52;15.40;99.90
39021;DHT22;25188;51.958;5.842;2022-10-16T09:15:07;15.50;99.70
39021;DHT22;25188;51.958;5.842;2022-10-16T09:21:15;15.50;99.40
39021;DHT22;25188;51.958;5.842;2022-10-16T09:23:43;15.60;99.10
39021;DHT22;25188;51.958;5.842;2022-10-16T09:26:14;15.70;99.00
39021;DHT22;25188;51.958;5.842;2022-10-16T09:28:40;15.70;98.80
39021;DHT22;25188;51.958;5.842;2022-10-16T09:31:20;15.80;98.50
39021;DHT22;25188;51.958;5.842;2022-10-16T09:33:52;15.90;98.50
39021;DHT22;25188;51.958;5.842;2022-10-16T09:36:20;16.00;98.50
39021;DHT22;25188;51.958;5.842;2022-10-16T09:38:46;16.20;98.50
39021;DHT22;25188;51.958;5.842;2022-10-16T09:46:32;17.10;98.50
39021;DHT22;25188;51.958;5.842;2022-10-16T09:49:00;17.40;98.30
39021;DHT22;25188;51.958;5.842;2022-10-16T09:51:34;17.80;98.20
39021;DHT22;25188;51.958;5.842;2022-10-16T09:56:36;18.50;96.20
39021;DHT22;25188;51.958;5.842;2022-10-16T09:59:16;18.90;96.10
39021;DHT22;25188;51.958;5.842;2022-10-16T10:04:14;20.20;95.30
39021;DHT22;25188;51.958;5.842;2022-10-16T10:06:54;20.90;94.70
39021;DHT22;25188;51.958;5.842;2022-10-16T10:09:38;21.60;93.70
39021;DHT22;25188;51.958;5.842;2022-10-16T10:14:49;23.00;89.50
39021;DHT22;25188;51.958;5.842;2022-10-16T10:17:23;23.10;85.90
39021;DHT22;25188;51.958;5.842;2022-10-16T10:19:50;23.40;83.40
39021;DHT22;25188;51.958;5.842;2022-10-16T10:22:29;23.80;83.40
39021;DHT22;25188;51.958;5.842;2022-10-16T10:28:10;24.60;77.40
39021;DHT22;25188;51.958;5.842;2022-10-16T10:30:48;25.00;76.20
39021;DHT22;25188;51.958;5.842;2022-10-16T10:44:57;26.30;63.30
39021;DHT22;25188;51.958;5.842;2022-10-16T10:50:41;26.80;60.50
39021;DHT22;25188;51.958;5.842;2022-10-16T10:59:16;27.40;57.20
39021;DHT22;25188;51.958;5.842;2022-10-16T11:01:50;27.50;56.70
39021;DHT22;25188;51.958;5.842;2022-10-16T11:07:29;27.90;53.60
39021;DHT22;25188;51.958;5.842;2022-10-16T11:10:02;27.70;52.30
39021;DHT22;25188;51.958;5.842;2022-10-16T11:12:38;27.30;51.20
39021;DHT22;25188;51.958;5.842;2022-10-16T11:15:25;27.30;51.40
39021;DHT22;25188;51.958;5.842;2022-10-16T11:18:11;27.50;52.30
39021;DHT22;25188;51.958;5.842;2022-10-16T11:20:49;27.40;52.20
39021;DHT22;25188;51.958;5.842;2022-10-16T11:25:57;27.10;51.20
39021;DHT22;25188;51.958;5.842;2022-10-16T11:28:35;27.10;51.50
39021;DHT22;25188;51.958;5.842;2022-10-16T11:31:24;27.30;51.90
39021;DHT22;25188;51.958;5.842;2022-10-16T11:39:24;27.50;51.00
39021;DHT22;25188;51.958;5.842;2022-10-16T11:47:51;28.40;50.20
39021;DHT22;25188;51.958;5.842;2022-10-16T11:55:53;29.10;46.90
39021;DHT22;25188;51.958;5.842;2022-10-16T12:03:32;27.80;48.00
39021;DHT22;25188;51.958;5.842;2022-10-16T12:08:37;27.90;48.00
39021;DHT22;25188;51.958;5.842;2022-10-16T12:13:51;28.40;47.40
39021;DHT22;25188;51.958;5.842;2022-10-16T12:18:44;28.70;46.70
39021;DHT22;25188;51.958;5.842;2022-10-16T12:21:11;28.90;46.10
39021;DHT22;25188;51.958;5.842;2022-10-16T12:23:54;29.10;45.90
39021;DHT22;25188;51.958;5.842;2022-10-16T12:26:37;29.30;45.10
39021;DHT22;25188;51.958;5.842;2022-10-16T12:29:40;29.60;45.50
39021;DHT22;25188;51.958;5.842;2022-10-16T12:32:32;30.10;45.40
39021;DHT22;25188;51.958;5.842;2022-10-16T12:34:59;30.40;44.80
39021;DHT22;25188;51.958;5.842;2022-10-16T12:37:36;30.90;45.20
39021;DHT22;25188;51.958;5.842;2022-10-16T12:40:30;31.10;44.50
39021;DHT22;25188;51.958;5.842;2022-10-16T12:42:57;31.40;43.70
39021;DHT22;25188;51.958;5.842;2022-10-16T12:45:31;31.50;43.40
39021;DHT22;25188;51.958;5.842;2022-10-16T12:48:00;31.70;43.20
39021;DHT22;25188;51.958;5.842;2022-10-16T12:50:30;31.90;43.10
39021;DHT22;25188;51.958;5.842;2022-10-16T12:52:57;32.00;42.80
39021;DHT22;25188;51.958;5.842;2022-10-16T12:55:23;32.20;42.60
39021;DHT22;25188;51.958;5.842;2022-10-16T13:00:54;32.30;41.30
39021;DHT22;25188;51.958;5.842;2022-10-16T13:03:28;32.30;41.00
39021;DHT22;25188;51.958;5.842;2022-10-16T13:14:54;32.40;41.30
39021;DHT22;25188;51.958;5.842;2022-10-16T13:20:36;32.30;40.80
39021;DHT22;25188;51.958;5.842;2022-10-16T13:23:13;32.20;40.80
39021;DHT22;25188;51.958;5.842;2022-10-16T13:25:50;32.10;41.20
39021;DHT22;25188;51.958;5.842;2022-10-16T13:28:22;31.80;40.90
39021;DHT22;25188;51.958;5.842;2022-10-16T13:30:54;31.40;41.70
39021;DHT22;25188;51.958;5.842;2022-10-16T13:33:41;31.00;42.50
39021;DHT22;25188;51.958;5.842;2022-10-16T13:36:26;30.30;42.20
39021;DHT22;25188;51.958;5.842;2022-10-16T13:39:20;29.90;43.30
39021;DHT22;25188;51.958;5.842;2022-10-16T13:42:01;30.10;43.50
39021;DHT22;25188;51.958;5.842;2022-10-16T13:44:34;30.60;43.60
39021;DHT22;25188;51.958;5.842;2022-10-16T13:47:02;30.90;42.90
39021;DHT22;25188;51.958;5.842;2022-10-16T13:49:27;31.30;42.80
39021;DHT22;25188;51.958;5.842;2022-10-16T13:51:58;31.50;42.60
39021;DHT22;25188;51.958;5.842;2022-10-16T13:54:25;31.70;42.20
39021;DHT22;25188;51.958;5.842;2022-10-16T13:56:52;31.90;42.00
39021;DHT22;25188;51.958;5.842;2022-10-16T13:59:33;32.00;41.70
39021;DHT22;25188;51.958;5.842;2022-10-16T14:02:00;32.10;41.90
39021;DHT22;25188;51.958;5.842;2022-10-16T14:04:32;32.30;41.70
39021;DHT22;25188;51.958;5.842;2022-10-16T14:06:58;32.20;41.30
39021;DHT22;25188;51.958;5.842;2022-10-16T14:09:30;32.20;41.30
39021;DHT22;25188;51.958;5.842;2022-10-16T14:12:08;32.00;40.90
39021;DHT22;25188;51.958;5.842;2022-10-16T14:14:46;31.90;41.30
39021;DHT22;25188;51.958;5.842;2022-10-16T14:17:17;31.60;41.00
39021;DHT22;25188;51.958;5.842;2022-10-16T14:19:47;31.30;41.00
39021;DHT22;25188;51.958;5.842;2022-10-16T14:22:40;30.90;40.90
39021;DHT22;25188;51.958;5.842;2022-10-16T14:25:35;30.60;41.40
39021;DHT22;25188;51.958;5.842;2022-10-16T14:28:18;30.40;41.60
39021;DHT22;25188;51.958;5.842;2022-10-16T14:30:52;30.30;42.00
39021;DHT22;25188;51.958;5.842;2022-10-16T14:33:39;30.40;42.50
39021;DHT22;25188;51.958;5.842;2022-10-16T14:36:15;30.20;42.30
39021;DHT22;25188;51.958;5.842;2022-10-16T14:39:02;30.20;42.60
39021;DHT22;25188;51.958;5.842;2022-10-16T14:41:30;30.10;42.50
39021;DHT22;25188;51.958;5.842;2022-10-16T14:44:02;29.90;42.50
39021;DHT22;25188;51.958;5.842;2022-10-16T14:46:31;29.50;42.90
39021;DHT22;25188;51.958;5.842;2022-10-16T14:51:40;29.10;43.20
39021;DHT22;25188;51.958;5.842;2022-10-16T14:54:08;28.80;43.70
39021;DHT22;25188;51.958;5.842;2022-10-16T14:56:44;28.40;44.20
39021;DHT22;25188;51.958;5.842;2022-10-16T14:59:17;27.80;44.80
39021;DHT22;25188;51.958;5.842;2022-10-16T15:01:44;27.40;45.80
39021;DHT22;25188;51.958;5.842;2022-10-16T15:04:12;27.20;46.50
39021;DHT22;25188;51.958;5.842;2022-10-16T15:06:38;27.00;46.60
39021;DHT22;25188;51.958;5.842;2022-10-16T15:09:06;26.90;47.00
39021;DHT22;25188;51.958;5.842;2022-10-16T15:11:32;26.80;47.30
39021;DHT22;25188;51.958;5.842;2022-10-16T15:13:58;26.60;47.70
39021;DHT22;25188;51.958;5.842;2022-10-16T15:16:24;26.30;48.40
39021;DHT22;25188;51.958;5.842;2022-10-16T15:18:50;26.10;49.10
39021;DHT22;25188;51.958;5.842;2022-10-16T15:21:34;25.80;49.70
39021;DHT22;25188;51.958;5.842;2022-10-16T15:24:00;25.50;50.70
39021;DHT22;25188;51.958;5.842;2022-10-16T15:26:27;25.20;51.00
39021;DHT22;25188;51.958;5.842;2022-10-16T15:28:53;25.00;51.00
39021;DHT22;25188;51.958;5.842;2022-10-16T15:31:19;24.80;51.30
39021;DHT22;25188;51.958;5.842;2022-10-16T15:33:50;24.50;51.90
39021;DHT22;25188;51.958;5.842;2022-10-16T15:36:25;24.30;52.80
39021;DHT22;25188;51.958;5.842;2022-10-16T15:38:51;24.00;53.40
39021;DHT22;25188;51.958;5.842;2022-10-16T15:41:17;23.80;53.70
39021;DHT22;25188;51.958;5.842;2022-10-16T15:43:42;23.60;54.00
39021;DHT22;25188;51.958;5.842;2022-10-16T15:46:11;23.40;54.70
39021;DHT22;25188;51.958;5.842;2022-10-16T15:48:36;23.20;55.00
39021;DHT22;25188;51.958;5.842;2022-10-16T15:51:06;23.10;55.20
39021;DHT22;25188;51.958;5.842;2022-10-16T15:53:32;22.90;55.50
39021;DHT22;25188;51.958;5.842;2022-10-16T15:56:02;22.80;55.70
39021;DHT22;25188;51.958;5.842;2022-10-16T15:58:28;22.70;56.10
39021;DHT22;25188;51.958;5.842;2022-10-16T16:00:55;22.50;57.20
39021;DHT22;25188;51.958;5.842;2022-10-16T16:03:21;22.40;57.20
39021;DHT22;25188;51.958;5.842;2022-10-16T16:05:47;22.20;57.60
39021;DHT22;25188;51.958;5.842;2022-10-16T16:08:12;22.00;58.00
39021;DHT22;25188;51.958;5.842;2022-10-16T16:10:38;21.80;58.70
39021;DHT22;25188;51.958;5.842;2022-10-16T16:13:04;21.70;59.50
39021;DHT22;25188;51.958;5.842;2022-10-16T16:15:29;21.60;59.90
39021;DHT22;25188;51.958;5.842;2022-10-16T16:17:55;21.40;60.20
39021;DHT22;25188;51.958;5.842;2022-10-16T16:20:21;21.30;60.60
39021;DHT22;25188;51.958;5.842;2022-10-16T16:22:47;21.20;61.00
39021;DHT22;25188;51.958;5.842;2022-10-16T16:25:12;21.10;61.40
39021;DHT22;25188;51.958;5.842;2022-10-16T16:27:38;21.00;61.70
39021;DHT22;25188;51.958;5.842;2022-10-16T16:30:06;20.90;62.10
39021;DHT22;25188;51.958;5.842;2022-10-16T16:32:33;20.70;62.60
39021;DHT22;25188;51.958;5.842;2022-10-16T16:34:59;20.70;63.10
39021;DHT22;25188;51.958;5.842;2022-10-16T16:37:25;20.50;63.40
39021;DHT22;25188;51.958;5.842;2022-10-16T16:39:50;20.50;63.70
39021;DHT22;25188;51.958;5.842;2022-10-16T16:42:16;20.40;64.20
39021;DHT22;25188;51.958;5.842;2022-10-16T16:44:42;20.30;64.70
39021;DHT22;25188;51.958;5.842;2022-10-16T16:47:08;20.20;65.00
39021;DHT22;25188;51.958;5.842;2022-10-16T16:49:34;20.10;65.40
39021;DHT22;25188;51.958;5.842;2022-10-16T16:52:00;20.10;65.80
39021;DHT22;25188;51.958;5.842;2022-10-16T16:54:26;19.90;66.00
39021;DHT22;25188;51.958;5.842;2022-10-16T16:56:51;19.90;66.30
39021;DHT22;25188;51.958;5.842;2022-10-16T16:59:19;19.80;66.40
39021;DHT22;25188;51.958;5.842;2022-10-16T17:01:45;19.70;66.80
39021;DHT22;25188;51.958;5.842;2022-10-16T17:04:11;19.60;67.00
39021;DHT22;25188;51.958;5.842;2022-10-16T17:06:37;19.60;67.50
39021;DHT22;25188;51.958;5.842;2022-10-16T17:09:04;19.50;67.70
39021;DHT22;25188;51.958;5.842;2022-10-16T17:11:30;19.40;67.90
39021;DHT22;25188;51.958;5.842;2022-10-16T17:13:57;19.40;68.00
39021;DHT22;25188;51.958;5.842;2022-10-16T17:16:27;19.40;68.30
39021;DHT22;25188;51.958;5.842;2022-10-16T17:18:53;19.30;68.70
39021;DHT22;25188;51.958;5.842;2022-10-16T17:21:19;19.20;69.20
39021;DHT22;25188;51.958;5.842;2022-10-16T17:23:45;19.20;69.70
39021;DHT22;25188;51.958;5.842;2022-10-16T17:26:15;19.10;70.10
39021;DHT22;25188;51.958;5.842;2022-10-16T17:28:41;19.00;70.60
39021;DHT22;25188;51.958;5.842;2022-10-16T17:31:18;19.00;70.90
39021;DHT22;25188;51.958;5.842;2022-10-16T17:33:45;19.00;71.50
39021;DHT22;25188;51.958;5.842;2022-10-16T17:36:11;18.90;71.70
39021;DHT22;25188;51.958;5.842;2022-10-16T17:38:40;18.90;72.70
39021;DHT22;25188;51.958;5.842;2022-10-16T17:41:22;18.90;72.20
39021;DHT22;25188;51.958;5.842;2022-10-16T17:43:49;18.70;72.40
39021;DHT22;25188;51.958;5.842;2022-10-16T17:46:18;18.70;72.50
39021;DHT22;25188;51.958;5.842;2022-10-16T17:48:45;18.70;73.00
39021;DHT22;25188;51.958;5.842;2022-10-16T17:51:14;18.60;73.50
39021;DHT22;25188;51.958;5.842;2022-10-16T17:53:40;18.60;73.80
39021;DHT22;25188;51.958;5.842;2022-10-16T17:56:11;18.50;73.80